Time;durP1;ratioP1;P1;durP2;ratioP2;P2;SDS_P1;SDS_P2;PMS_P1;PMS_P2;Temp;Humidity;BMP_temperature;BMP_pressure;BME280_temperature;BME280_humidity;BME280_pressure;Samples;Min_cycle;Max_cycle;Signal;HPM_P1;HPM_P2
2022/07/10 00:00:14;;;;;;;27.95;16.13;;;28.80;92.90;;;;;;5104743;28;20208;-54
2022/07/10 00:02:42;;;;;;;28.02;15.75;;;29.10;92.60;;;;;;5124934;28;20015;-56
2022/07/10 00:05:10;;;;;;;23.25;16.05;;;29.00;92.60;;;;;;5124458;28;20314;-54
2022/07/10 00:07:37;;;;;;;29.38;20.42;;;28.80;93.00;;;;;;5124512;28;20016;-58
2022/07/10 00:10:04;;;;;;;24.52;17.67;;;28.70;93.00;;;;;;5122159;28;20052;-54
2022/07/10 00:12:31;;;;;;;24.55;15.35;;;28.60;93.00;;;;;;5123205;28;20023;-49
2022/07/10 00:14:58;;;;;;;20.67;12.30;;;28.60;92.70;;;;;;5124459;28;20089;-57
2022/07/10 00:17:24;;;;;;;13.43;7.55;;;28.50;92.30;;;;;;5123960;28;20471;-51
2022/07/10 00:19:51;;;;;;;11.90;5.90;;;28.90;91.70;;;;;;5121440;27;20051;-54
2022/07/10 00:22:17;;;;;;;7.82;3.83;;;29.40;90.60;;;;;;5121557;27;20016;-53
2022/07/10 00:24:44;;;;;;;9.82;3.90;;;29.60;90.20;;;;;;5124286;28;20935;-51
2022/07/10 00:27:10;;;;;;;7.15;3.70;;;29.60;90.00;;;;;;5122827;28;20023;-54
2022/07/10 00:29:37;;;;;;;7.10;4.00;;;29.70;89.90;;;;;;5120911;28;20319;-57
2022/07/10 00:32:04;;;;;;;9.90;4.03;;;29.60;90.00;;;;;;5124144;28;20019;-55
2022/07/10 00:34:30;;;;;;;9.23;2.92;;;29.40;89.70;;;;;;5102301;28;20043;-54
2022/07/10 00:36:57;;;;;;;5.28;2.40;;;29.30;89.90;;;;;;5116449;28;20085;-53
2022/07/10 00:39:24;;;;;;;6.18;2.30;;;29.20;89.60;;;;;;5104215;28;20066;-59
2022/07/10 00:41:51;;;;;;;8.50;2.15;;;28.80;90.10;;;;;;5088085;28;20020;-58
2022/07/10 00:44:17;;;;;;;5.90;2.05;;;28.40;90.60;;;;;;5113309;28;20219;-56
2022/07/10 00:46:44;;;;;;;7.60;1.80;;;28.30;91.00;;;;;;5118266;28;20022;-55
2022/07/10 00:49:10;;;;;;;5.28;2.13;;;28.20;91.30;;;;;;5104146;28;20031;-54
2022/07/10 00:51:37;;;;;;;6.63;1.60;;;28.00;91.70;;;;;;5104204;28;20085;-58
2022/07/10 00:54:05;;;;;;;7.65;1.70;;;27.90;91.80;;;;;;5103697;28;20122;-54
2022/07/10 00:56:32;;;;;;;8.00;1.50;;;27.80;92.10;;;;;;5103780;28;20040;-63
2022/07/10 00:58:59;;;;;;;6.22;1.88;;;27.80;92.10;;;;;;5110438;28;20323;-60
2022/07/10 01:01:26;;;;;;;5.35;1.70;;;27.80;92.10;;;;;;5116291;28;20023;-52
2022/07/10 01:03:53;;;;;;;5.18;2.35;;;27.70;92.20;;;;;;5115368;28;20299;-55
2022/07/10 01:06:19;;;;;;;9.27;4.13;;;27.60;92.20;;;;;;5104636;28;20016;-58
2022/07/10 01:08:46;;;;;;;4.93;2.95;;;27.60;92.40;;;;;;5104355;28;20087;-58
2022/07/10 01:11:14;;;;;;;8.88;6.55;;;27.50;92.50;;;;;;5103848;28;20020;-55
2022/07/10 01:13:43;;;;;;;9.07;6.93;;;27.30;92.50;;;;;;5103790;28;20028;-53
2022/07/10 01:16:10;;;;;;;5.90;3.63;;;27.30;92.80;;;;;;5112851;28;20028;-54
2022/07/10 01:18:37;;;;;;;38.10;33.97;;;27.20;92.70;;;;;;5107516;28;20032;-55
2022/07/10 01:21:03;;;;;;;17.73;14.50;;;27.10;92.80;;;;;;5103465;28;20300;-66
2022/07/10 01:23:30;;;;;;;24.60;21.70;;;27.10;93.00;;;;;;5103762;28;20212;-58
2022/07/10 01:25:57;;;;;;;18.45;10.98;;;27.10;93.10;;;;;;5110812;28;20035;-55
2022/07/10 01:28:23;;;;;;;9.13;6.25;;;27.10;93.00;;;;;;5103660;28;20031;-59
2022/07/10 01:30:50;;;;;;;11.57;5.50;;;27.20;92.90;;;;;;5120744;28;20023;-54
2022/07/10 01:33:17;;;;;;;12.02;5.10;;;27.20;92.80;;;;;;5120760;28;20024;-58
2022/07/10 01:35:44;;;;;;;7.63;3.70;;;27.00;92.90;;;;;;5114724;28;20071;-54
2022/07/10 01:38:13;;;;;;;8.88;3.70;;;27.10;92.90;;;;;;5122381;28;20028;-58
2022/07/10 01:40:40;;;;;;;7.25;3.20;;;27.10;92.70;;;;;;5123773;28;20058;-56
2022/07/10 01:43:06;;;;;;;8.13;2.90;;;27.20;92.70;;;;;;5123855;28;20020;-62
2022/07/10 01:45:33;;;;;;;7.53;2.47;;;27.30;92.70;;;;;;5124131;28;20016;-56
2022/07/10 01:48:00;;;;;;;6.30;2.38;;;27.30;92.50;;;;;;5123671;28;20028;-55
2022/07/10 01:50:26;;;;;;;3.63;1.70;;;27.30;92.50;;;;;;5124654;28;20028;-55
2022/07/10 01:52:53;;;;;;;5.32;1.70;;;27.40;92.40;;;;;;5123837;28;20030;-57
2022/07/10 01:55:20;;;;;;;8.40;1.98;;;27.30;92.40;;;;;;5123094;28;20022;-61
2022/07/10 01:57:46;;;;;;;4.15;1.60;;;27.40;92.40;;;;;;5121602;28;20036;-57
2022/07/10 02:00:13;;;;;;;6.63;1.60;;;27.40;92.50;;;;;;5122738;28;20235;-55
2022/07/10 02:02:39;;;;;;;2.90;1.25;;;27.40;92.40;;;;;;5104184;28;20015;-56
2022/07/10 02:05:06;;;;;;;5.28;1.15;;;27.40;92.20;;;;;;5121849;28;20061;-58
2022/07/10 02:07:33;;;;;;;7.05;1.10;;;27.40;92.20;;;;;;5125783;28;20043;-58
2022/07/10 02:09:59;;;;;;;6.45;1.00;;;27.40;92.20;;;;;;5126722;28;20090;-56
2022/07/10 02:12:26;;;;;;;7.93;1.00;;;27.40;92.20;;;;;;5126394;28;20031;-55
2022/07/10 02:14:52;;;;;;;1.67;0.60;;;27.40;92.30;;;;;;5127651;28;20069;-55
2022/07/10 02:17:19;;;;;;;2.45;0.80;;;27.40;92.10;;;;;;5127705;28;20023;-57
2022/07/10 02:19:46;;;;;;;5.20;0.82;;;27.40;92.00;;;;;;5127625;28;20019;-55
2022/07/10 02:22:12;;;;;;;6.72;1.00;;;27.40;91.90;;;;;;5127203;28;20023;-62
2022/07/10 02:24:39;;;;;;;4.50;0.70;;;27.40;91.90;;;;;;5127678;28;20312;-63
2022/07/10 02:27:05;;;;;;;3.88;1.02;;;27.40;91.90;;;;;;5127199;28;20032;-56
2022/07/10 02:29:32;;;;;;;5.90;0.80;;;27.30;91.80;;;;;;5127584;28;20027;-57
2022/07/10 02:31:58;;;;;;;4.15;0.75;;;27.40;91.80;;;;;;5126839;28;20393;-60
2022/07/10 02:34:25;;;;;;;3.15;0.65;;;27.30;91.70;;;;;;5126652;28;20044;-54
2022/07/10 02:36:53;;;;;;;3.83;0.80;;;27.40;91.80;;;;;;5126663;28;20218;-53
2022/07/10 02:39:22;;;;;;;4.78;0.70;;;27.30;91.80;;;;;;5127094;28;20043;-54
2022/07/10 02:41:48;;;;;;;2.08;0.63;;;27.40;91.70;;;;;;5126857;28;20043;-55
2022/07/10 02:44:15;;;;;;;5.05;0.85;;;27.30;91.70;;;;;;5126995;28;20058;-55
2022/07/10 02:46:41;;;;;;;5.88;0.60;;;27.40;91.70;;;;;;5126706;28;20353;-54
2022/07/10 02:49:09;;;;;;;2.80;0.60;;;27.30;91.60;;;;;;5127019;28;20031;-54
2022/07/10 02:51:35;;;;;;;3.65;0.57;;;27.30;91.70;;;;;;5126464;28;20027;-53
2022/07/10 02:54:02;;;;;;;4.88;0.60;;;27.30;91.60;;;;;;5127029;28;20046;-54
2022/07/10 02:56:29;;;;;;;2.28;0.60;;;27.30;91.60;;;;;;5126229;28;20027;-54
2022/07/10 02:58:55;;;;;;;5.45;0.50;;;27.30;91.60;;;;;;5126528;28;20023;-57
2022/07/10 03:01:22;;;;;;;3.33;0.40;;;27.30;91.50;;;;;;5126924;28;20229;-56
2022/07/10 03:03:48;;;;;;;3.10;0.52;;;27.30;91.50;;;;;;5126496;28;20023;-55
2022/07/10 03:06:15;;;;;;;1.60;0.40;;;27.30;91.50;;;;;;5126719;28;20019;-56
2022/07/10 03:08:41;;;;;;;3.50;0.60;;;27.30;91.40;;;;;;5126606;28;20027;-56
2022/07/10 03:11:08;;;;;;;3.28;0.50;;;27.30;91.40;;;;;;5126387;28;20335;-56
2022/07/10 03:13:35;;;;;;;6.65;0.60;;;27.30;91.40;;;;;;5126713;28;20035;-56
2022/07/10 03:16:01;;;;;;;5.85;0.60;;;27.30;91.40;;;;;;5126472;28;20047;-55
2022/07/10 03:18:28;;;;;;;4.65;0.60;;;27.20;91.30;;;;;;5125882;28;20019;-63
2022/07/10 03:20:54;;;;;;;4.28;0.52;;;27.30;91.40;;;;;;5126202;28;20069;-67
2022/07/10 03:23:21;;;;;;;4.45;0.50;;;27.30;91.30;;;;;;5126421;28;20015;-60
2022/07/10 03:25:48;;;;;;;3.35;0.70;;;27.30;91.30;;;;;;5126290;28;20019;-54
2022/07/10 03:28:14;;;;;;;5.57;0.65;;;27.20;91.30;;;;;;5126009;28;20054;-55
2022/07/10 03:30:41;;;;;;;2.38;0.50;;;27.20;91.20;;;;;;5126304;28;20094;-57
2022/07/10 03:33:07;;;;;;;6.25;0.60;;;27.20;91.30;;;;;;5125951;28;20042;-56
2022/07/10 03:35:34;;;;;;;4.32;0.60;;;27.20;91.50;;;;;;5126074;28;20055;-58
2022/07/10 03:38:00;;;;;;;4.93;0.70;;;27.20;91.40;;;;;;5125855;28;20091;-61
2022/07/10 03:40:28;;;;;;;4.82;0.52;;;27.20;91.30;;;;;;5126399;28;20023;-55
2022/07/10 03:42:54;;;;;;;2.60;0.60;;;27.20;91.30;;;;;;5126259;28;20065;-53
2022/07/10 03:45:21;;;;;;;3.28;0.38;;;27.20;91.30;;;;;;5126438;28;20050;-55
2022/07/10 03:47:47;;;;;;;3.20;0.70;;;27.20;91.40;;;;;;5125862;28;20065;-54
2022/07/10 03:50:14;;;;;;;4.22;0.50;;;27.10;91.40;;;;;;5126005;28;20173;-54
2022/07/10 03:52:41;;;;;;;5.10;0.65;;;27.10;91.40;;;;;;5126250;28;20149;-55
2022/07/10 03:55:08;;;;;;;4.13;0.50;;;27.10;91.50;;;;;;5126330;28;20023;-54
2022/07/10 04:00:23;;;;;;;3.17;0.68;;;27.10;91.60;;;;;;5126573;28;20098;-57
2022/07/10 04:02:58;;;;;;;7.22;0.60;;;27.10;91.70;;;;;;5125753;28;20085;-57
2022/07/10 04:05:26;;;;;;;3.70;0.55;;;27.10;91.60;;;;;;5126660;28;20079;-56
2022/07/10 04:07:52;;;;;;;8.55;0.65;;;27.10;91.70;;;;;;5125761;28;20023;-57
2022/07/10 04:10:20;;;;;;;4.18;0.63;;;27.10;91.80;;;;;;5126337;28;20015;-54
2022/07/10 04:12:48;;;;;;;7.03;0.77;;;27.10;91.80;;;;;;5125798;28;20201;-55
2022/07/10 04:15:15;;;;;;;3.33;0.70;;;27.00;91.80;;;;;;5126080;28;20045;-55
2022/07/10 04:17:41;;;;;;;5.60;0.77;;;27.00;91.80;;;;;;5125350;28;20077;-54
2022/07/10 04:20:08;;;;;;;3.38;0.70;;;27.00;91.80;;;;;;5125951;28;20020;-54
2022/07/10 04:22:35;;;;;;;5.50;0.88;;;27.00;91.70;;;;;;5125353;28;20066;-54
2022/07/10 04:25:02;;;;;;;5.30;1.00;;;27.00;91.80;;;;;;5125523;28;20046;-55
2022/07/10 04:27:28;;;;;;;7.20;0.90;;;27.00;91.80;;;;;;5125974;28;20047;-56
2022/07/10 04:29:55;;;;;;;3.35;0.68;;;27.00;91.90;;;;;;5124721;28;20027;-54
2022/07/10 04:32:22;;;;;;;3.67;0.70;;;27.00;91.80;;;;;;5125368;28;20306;-58
2022/07/10 04:34:48;;;;;;;3.78;0.80;;;27.00;91.80;;;;;;5124890;28;20056;-60
2022/07/10 04:37:15;;;;;;;4.68;0.70;;;27.00;91.80;;;;;;5125380;28;20024;-57
2022/07/10 04:39:42;;;;;;;3.97;0.57;;;27.00;91.70;;;;;;5125240;28;20019;-54
2022/07/10 04:42:09;;;;;;;6.13;0.60;;;27.00;91.70;;;;;;5125082;28;20023;-57
2022/07/10 04:44:36;;;;;;;3.05;0.45;;;27.00;91.60;;;;;;5125578;28;20027;-56
2022/07/10 04:47:03;;;;;;;5.25;0.50;;;27.00;91.70;;;;;;5124912;28;20015;-56
2022/07/10 04:49:30;;;;;;;5.50;0.57;;;27.00;91.60;;;;;;5125606;28;20023;-55
2022/07/10 04:51:57;;;;;;;4.32;0.50;;;26.90;91.50;;;;;;5125192;28;20030;-56
2022/07/10 04:54:23;;;;;;;4.40;0.82;;;27.00;91.50;;;;;;5124980;28;20211;-52
2022/07/10 04:56:50;;;;;;;6.70;1.00;;;26.90;91.50;;;;;;5124872;28;20031;-52
2022/07/10 04:59:16;;;;;;;6.45;0.73;;;26.90;91.40;;;;;;5125450;28;20129;-54
2022/07/10 05:01:43;;;;;;;3.55;0.43;;;26.90;91.40;;;;;;5125010;28;20027;-54
2022/07/10 05:04:10;;;;;;;3.08;0.60;;;26.90;91.30;;;;;;5107129;28;20020;-57
2022/07/10 05:06:37;;;;;;;2.55;0.40;;;26.90;91.30;;;;;;5124973;28;20012;-55
2022/07/10 05:09:04;;;;;;;3.95;0.45;;;26.90;91.20;;;;;;5124935;28;20200;-61
2022/07/10 05:11:31;;;;;;;2.70;0.50;;;26.90;91.30;;;;;;5124637;28;20027;-63
2022/07/10 05:13:58;;;;;;;6.70;1.00;;;26.90;91.30;;;;;;5124388;28;20027;-63
2022/07/10 05:16:25;;;;;;;8.10;1.92;;;26.90;91.40;;;;;;5124729;28;20019;-63
2022/07/10 05:18:51;;;;;;;5.93;1.90;;;26.90;91.60;;;;;;5124936;28;20324;-58
2022/07/10 05:21:18;;;;;;;5.47;1.48;;;26.90;91.80;;;;;;5125213;28;20069;-57
2022/07/10 05:23:44;;;;;;;4.78;1.58;;;26.90;91.80;;;;;;5124713;28;20015;-59
2022/07/10 05:26:11;;;;;;;7.53;1.60;;;26.80;91.60;;;;;;5124846;28;20024;-55
2022/07/10 05:28:37;;;;;;;4.30;1.23;;;26.80;91.80;;;;;;5124827;28;20038;-54
2022/07/10 05:31:04;;;;;;;4.70;1.80;;;26.80;91.90;;;;;;5125072;28;20026;-52
2022/07/10 05:33:32;;;;;;;6.05;1.55;;;26.80;91.90;;;;;;5124931;28;20070;-56
2022/07/10 05:35:59;;;;;;;5.55;1.42;;;26.80;92.10;;;;;;5124649;28;20056;-53
2022/07/10 05:38:25;;;;;;;11.00;2.10;;;26.80;92.20;;;;;;5124966;28;20177;-55
2022/07/10 05:40:53;;;;;;;6.88;1.92;;;26.80;92.20;;;;;;5127375;28;20031;-56
2022/07/10 05:43:20;;;;;;;8.63;2.05;;;26.80;92.30;;;;;;5128742;28;20069;-58
2022/07/10 05:45:47;;;;;;;4.88;1.90;;;26.80;92.40;;;;;;5128929;28;20023;-56
2022/07/10 05:48:13;;;;;;;4.68;1.70;;;26.80;92.50;;;;;;5128598;28;20178;-56
2022/07/10 05:50:40;;;;;;;5.40;1.48;;;26.70;92.50;;;;;;5128636;28;20224;-56
2022/07/10 05:53:06;;;;;;;8.30;1.80;;;26.70;92.60;;;;;;5128253;28;20023;-55
2022/07/10 05:55:33;;;;;;;5.75;1.60;;;26.70;92.70;;;;;;5128484;28;20023;-54
2022/07/10 05:57:59;;;;;;;5.05;1.50;;;26.70;92.70;;;;;;5128119;28;20026;-54
2022/07/10 06:00:26;;;;;;;7.15;1.42;;;26.70;92.80;;;;;;5128751;28;20046;-57
2022/07/10 06:02:52;;;;;;;8.57;1.42;;;26.70;92.80;;;;;;5128205;28;20057;-56
2022/07/10 06:05:19;;;;;;;7.65;1.38;;;26.70;92.80;;;;;;5128734;28;20012;-58
2022/07/10 06:07:46;;;;;;;6.15;1.20;;;26.70;92.90;;;;;;5127812;28;20027;-55
2022/07/10 06:10:13;;;;;;;6.60;1.60;;;26.70;92.90;;;;;;5128368;28;20064;-57
2022/07/10 06:12:39;;;;;;;5.15;1.48;;;26.70;93.00;;;;;;5127811;28;20016;-57
2022/07/10 06:15:06;;;;;;;5.15;1.85;;;26.70;93.00;;;;;;5128623;28;20240;-55
2022/07/10 06:17:33;;;;;;;9.45;2.08;;;26.70;93.10;;;;;;5127841;28;20086;-56
2022/07/10 06:19:59;;;;;;;8.93;3.70;;;26.60;93.10;;;;;;5128059;28;20015;-58
2022/07/10 06:22:32;;;;;;;6.00;3.33;;;26.60;93.20;;;;;;5128109;28;20308;-54
2022/07/10 06:25:00;;;;;;;10.68;3.30;;;26.60;93.30;;;;;;5127981;28;20198;-55
2022/07/10 06:27:27;;;;;;;4.47;2.80;;;26.60;93.20;;;;;;5128053;28;20197;-56
2022/07/10 06:29:55;;;;;;;10.18;2.92;;;26.60;93.20;;;;;;5128160;28;20031;-55
2022/07/10 06:32:22;;;;;;;8.52;2.10;;;26.60;93.30;;;;;;5127500;28;20026;-57
2022/07/10 06:34:49;;;;;;;3.78;1.67;;;26.60;93.20;;;;;;5127406;28;20036;-53
2022/07/10 06:37:15;;;;;;;14.40;1.85;;;26.60;93.20;;;;;;5127933;28;20040;-57
2022/07/10 06:39:42;;;;;;;6.03;1.80;;;26.60;93.10;;;;;;5127792;28;20019;-56
2022/07/10 06:42:09;;;;;;;9.00;1.30;;;26.60;93.10;;;;;;5127840;28;20024;-57
2022/07/10 06:44:35;;;;;;;5.50;1.00;;;26.60;93.10;;;;;;5127373;28;20008;-55
2022/07/10 06:49:49;;;;;;;6.32;1.13;;;26.60;93.00;;;;;;5127756;28;20019;-54
2022/07/10 06:52:16;;;;;;;4.97;1.20;;;26.60;93.00;;;;;;5126746;28;20033;-57
2022/07/10 06:54:43;;;;;;;4.93;1.00;;;26.50;93.00;;;;;;5127892;28;20019;-56
2022/07/10 06:57:10;;;;;;;5.85;1.30;;;26.50;93.00;;;;;;5127184;28;20028;-57
2022/07/10 06:59:36;;;;;;;7.10;1.10;;;26.50;93.10;;;;;;5127317;28;20083;-59
2022/07/10 07:02:04;;;;;;;7.13;1.17;;;26.50;93.10;;;;;;5127304;28;20062;-54
2022/07/10 07:04:30;;;;;;;6.43;1.02;;;26.50;93.00;;;;;;5127708;28;20011;-54
2022/07/10 07:06:57;;;;;;;3.40;0.93;;;26.50;93.10;;;;;;5127148;28;20016;-54
2022/07/10 07:09:24;;;;;;;6.32;1.35;;;26.40;93.10;;;;;;5127183;28;20089;-52
2022/07/10 07:11:50;;;;;;;6.90;1.67;;;26.40;93.20;;;;;;5127052;28;20335;-54
2022/07/10 07:14:17;;;;;;;7.05;1.30;;;26.40;93.10;;;;;;5123337;28;20031;-53
2022/07/10 07:16:57;;;;;;;8.02;1.52;;;26.40;93.20;;;;;;5117024;28;20051;-54
2022/07/10 07:19:30;;;;;;;9.10;1.30;;;26.40;93.30;;;;;;5116881;28;20032;-57
2022/07/10 07:24:45;;;;;;;10.88;1.45;;;26.40;93.50;;;;;;5124281;28;20360;-53
2022/07/10 07:27:12;;;;;;;11.45;1.38;;;26.40;93.40;;;;;;5125005;28;20060;-55
2022/07/10 07:29:38;;;;;;;4.35;1.10;;;26.40;93.30;;;;;;5125741;28;20020;-55
2022/07/10 07:32:05;;;;;;;8.50;0.95;;;26.40;93.30;;;;;;5125120;28;20065;-55
2022/07/10 07:34:32;;;;;;;7.40;1.13;;;26.40;93.30;;;;;;5125119;28;20039;-57
2022/07/10 07:36:59;;;;;;;8.00;1.10;;;26.40;93.20;;;;;;5125395;28;20031;-55
2022/07/10 07:39:25;;;;;;;4.80;0.98;;;26.40;93.30;;;;;;5125184;28;20046;-55
2022/07/10 07:41:52;;;;;;;7.85;0.93;;;26.40;93.30;;;;;;5124741;28;20024;-53
2022/07/10 07:44:18;;;;;;;6.53;0.90;;;26.40;93.20;;;;;;5125670;28;20023;-58
2022/07/10 07:46:45;;;;;;;5.28;1.00;;;26.40;93.20;;;;;;5125120;28;20019;-52
2022/07/10 07:49:12;;;;;;;5.97;1.35;;;26.40;93.20;;;;;;5124779;28;20311;-55
2022/07/10 07:51:38;;;;;;;6.13;1.10;;;26.40;93.30;;;;;;5126596;27;20032;-54
2022/07/10 07:54:05;;;;;;;3.42;1.00;;;26.30;93.20;;;;;;5125210;28;20309;-55
2022/07/10 07:56:32;;;;;;;5.47;1.02;;;26.30;93.20;;;;;;5122422;27;20041;-53
2022/07/10 07:58:59;;;;;;;5.13;0.90;;;26.30;93.30;;;;;;5124381;28;20212;-55
2022/07/10 08:01:26;;;;;;;6.05;1.00;;;26.30;93.30;;;;;;5109040;28;20370;-54
2022/07/10 08:03:53;;;;;;;3.28;1.02;;;26.30;93.40;;;;;;5120829;28;20028;-63
2022/07/10 08:06:20;;;;;;;2.60;0.80;;;26.30;93.40;;;;;;5124284;28;20091;-63
2022/07/10 08:08:46;;;;;;;6.43;1.10;;;26.30;93.40;;;;;;5123837;28;20087;-63
2022/07/10 08:11:13;;;;;;;7.82;1.25;;;26.30;93.40;;;;;;5116195;28;20032;-56
2022/07/10 08:13:39;;;;;;;5.30;1.10;;;26.30;93.40;;;;;;5116140;28;20312;-54
2022/07/10 08:16:06;;;;;;;4.72;0.88;;;26.30;93.40;;;;;;5117825;28;20028;-55
2022/07/10 08:18:33;;;;;;;4.03;0.70;;;26.30;93.50;;;;;;5105828;28;20052;-55
2022/07/10 08:21:00;;;;;;;3.35;0.90;;;26.20;93.40;;;;;;5104465;28;20070;-54
2022/07/10 08:23:26;;;;;;;6.53;0.80;;;26.20;93.40;;;;;;5104401;28;20172;-55
2022/07/10 08:25:53;;;;;;;6.60;1.10;;;26.20;93.40;;;;;;5104723;28;20047;-55
2022/07/10 08:28:19;;;;;;;8.05;0.90;;;26.20;93.40;;;;;;5115206;28;20032;-55
2022/07/10 08:30:46;;;;;;;7.68;0.95;;;26.20;93.50;;;;;;5118097;28;20034;-65
2022/07/10 08:33:12;;;;;;;5.03;0.80;;;26.20;93.50;;;;;;5113145;28;20075;-58
2022/07/10 08:35:39;;;;;;;6.68;1.20;;;26.20;93.50;;;;;;5115721;28;20056;-54
2022/07/10 08:38:08;;;;;;;4.97;0.82;;;26.20;93.50;;;;;;5115975;28;20043;-56
2022/07/10 08:40:39;;;;;;;10.18;1.05;;;26.20;93.50;;;;;;5109368;28;20303;-57
2022/07/10 08:43:06;;;;;;;6.82;1.13;;;26.20;93.50;;;;;;5120758;28;20046;-62
2022/07/10 08:45:33;;;;;;;6.00;1.02;;;26.20;93.50;;;;;;5125073;28;20095;-55
2022/07/10 08:48:06;;;;;;;3.85;0.80;;;26.10;93.50;;;;;;5124359;28;20031;-54
2022/07/10 08:50:37;;;;;;;4.07;0.73;;;26.10;93.40;;;;;;5124996;28;20030;-54
2022/07/10 08:53:32;;;;;;;5.28;0.70;;;26.10;93.40;;;;;;5124510;28;20211;-55
2022/07/10 08:55:59;;;;;;;2.97;0.63;;;26.10;93.50;;;;;;5124497;28;20199;-56
2022/07/10 08:58:27;;;;;;;4.03;0.60;;;26.10;93.40;;;;;;5124047;28;20031;-57
2022/07/10 09:00:54;;;;;;;6.70;0.70;;;26.10;93.40;;;;;;5124614;28;20042;-57
2022/07/10 09:03:20;;;;;;;5.45;1.08;;;26.10;93.30;;;;;;5124291;28;20011;-57
2022/07/10 09:05:47;;;;;;;3.97;0.60;;;26.10;93.30;;;;;;5124408;28;20034;-56
2022/07/10 09:08:30;;;;;;;6.97;0.73;;;26.10;93.10;;;;;;5116024;28;20020;-57
2022/07/10 09:11:16;;;;;;;5.32;0.57;;;26.10;93.00;;;;;;5124374;28;20311;-58
2022/07/10 09:13:59;;;;;;;3.92;0.68;;;26.10;93.10;;;;;;5124517;28;20015;-55
2022/07/10 09:16:30;;;;;;;6.60;0.60;;;26.10;93.10;;;;;;5128003;28;20027;-57
2022/07/10 09:18:57;;;;;;;4.13;0.60;;;26.00;92.90;;;;;;5128446;28;20229;-55
2022/07/10 09:21:24;;;;;;;5.05;0.60;;;26.00;92.90;;;;;;5128260;28;20328;-56
2022/07/10 09:23:50;;;;;;;2.85;0.40;;;26.00;92.80;;;;;;5128378;28;20086;-61
2022/07/10 09:26:18;;;;;;;4.95;0.60;;;26.00;92.70;;;;;;5128151;28;20023;-56
2022/07/10 09:28:44;;;;;;;7.07;1.00;;;26.00;92.60;;;;;;5128214;28;20258;-56
2022/07/10 09:31:11;;;;;;;2.75;0.40;;;26.00;92.60;;;;;;5127977;28;20028;-63
2022/07/10 09:33:40;;;;;;;4.13;0.40;;;26.00;92.60;;;;;;5128117;28;20161;-62
2022/07/10 09:36:10;;;;;;;2.55;0.47;;;26.00;92.50;;;;;;5127899;28;20056;-53
2022/07/10 09:38:51;;;;;;;5.38;0.60;;;26.00;92.50;;;;;;5127833;28;20026;-58
2022/07/10 09:41:20;;;;;;;5.70;0.40;;;26.00;92.40;;;;;;5115312;27;20023;-58
2022/07/10 09:43:47;;;;;;;3.60;0.60;;;26.00;92.50;;;;;;5127800;28;20024;-57
2022/07/10 09:46:15;;;;;;;2.92;0.60;;;26.00;92.40;;;;;;5127924;28;20304;-57
2022/07/10 09:48:41;;;;;;;5.10;0.60;;;26.00;92.40;;;;;;5118288;28;20028;-56
2022/07/10 09:51:10;;;;;;;3.88;0.52;;;26.00;92.30;;;;;;5110106;28;20055;-57
2022/07/10 09:53:41;;;;;;;3.00;0.43;;;26.00;92.30;;;;;;5117198;28;20026;-57
2022/07/10 09:56:10;;;;;;;6.13;0.60;;;25.90;92.30;;;;;;5119248;28;20095;-56
2022/07/10 09:58:37;;;;;;;4.30;0.70;;;26.00;92.60;;;;;;5124046;28;20032;-53
2022/07/10 10:01:08;;;;;;;3.95;0.50;;;26.00;92.30;;;;;;5126932;28;20328;-53
2022/07/10 10:03:37;;;;;;;3.72;0.40;;;25.90;92.20;;;;;;5127529;28;20047;-56
2022/07/10 10:06:15;;;;;;;4.82;0.65;;;25.90;92.30;;;;;;5127502;28;20069;-59
2022/07/10 10:09:07;;;;;;;3.78;0.35;;;26.00;92.30;;;;;;5127467;28;20015;-54
2022/07/10 10:11:36;;;;;;;7.13;0.65;;;25.90;92.30;;;;;;5127343;28;20055;-56
2022/07/10 10:14:06;;;;;;;5.63;0.85;;;25.90;92.30;;;;;;5127373;28;20024;-54
2022/07/10 10:16:34;;;;;;;3.10;0.40;;;25.90;92.30;;;;;;5127269;28;20062;-61
2022/07/10 10:21:47;;;;;;;3.35;0.60;;;25.90;92.30;;;;;;5127198;28;20026;-56
2022/07/10 10:24:16;;;;;;;2.20;0.70;;;25.90;92.40;;;;;;5127435;28;20027;-55
2022/07/10 10:26:43;;;;;;;2.83;0.55;;;25.90;92.40;;;;;;5126361;28;20043;-57
2022/07/10 10:29:10;;;;;;;4.00;0.50;;;25.90;92.40;;;;;;5127065;28;20016;-56
2022/07/10 10:31:38;;;;;;;5.90;0.80;;;25.90;92.40;;;;;;5110948;28;20039;-57
2022/07/10 10:34:04;;;;;;;3.70;0.70;;;25.90;92.40;;;;;;5106612;28;20070;-53
2022/07/10 10:36:41;;;;;;;4.30;0.57;;;25.90;92.60;;;;;;5123789;28;20215;-53
2022/07/10 10:39:21;;;;;;;4.35;0.73;;;25.90;92.70;;;;;;5124410;28;20204;-53
2022/07/10 10:41:52;;;;;;;6.28;0.60;;;25.90;92.80;;;;;;5106212;28;20028;-54
2022/07/10 10:44:20;;;;;;;5.45;0.80;;;25.90;92.80;;;;;;5106680;28;20051;-56
2022/07/10 10:47:05;;;;;;;7.72;1.15;;;25.90;92.80;;;;;;5106321;28;20091;-53
2022/07/10 10:49:56;;;;;;;5.85;0.80;;;25.90;92.90;;;;;;5106905;28;20016;-58
2022/07/10 10:52:24;;;;;;;3.13;0.70;;;25.90;92.90;;;;;;5126522;28;20035;-57
2022/07/10 10:54:56;;;;;;;5.50;0.98;;;25.90;93.00;;;;;;5127020;28;20046;-55
2022/07/10 10:57:45;;;;;;;4.93;0.82;;;25.90;92.90;;;;;;5126652;28;20049;-58
2022/07/10 11:00:16;;;;;;;7.40;1.10;;;25.90;93.00;;;;;;5126763;28;20055;-56
2022/07/10 11:02:43;;;;;;;7.47;1.08;;;25.90;93.10;;;;;;5126313;28;20019;-57
2022/07/10 11:07:58;;;;;;;6.20;1.20;;;25.90;93.00;;;;;;5105882;28;20017;-55
2022/07/10 11:10:37;;;;;;;9.02;1.75;;;25.90;93.10;;;;;;5106204;28;20066;-58
2022/07/10 11:13:11;;;;;;;5.40;1.73;;;25.90;93.10;;;;;;5105830;28;20019;-58
2022/07/10 11:15:43;;;;;;;6.28;1.70;;;25.90;93.20;;;;;;5105576;28;20541;-54
2022/07/10 11:18:13;;;;;;;;;;;25.90;93.30;;;;;;5105976;28;20062;-54
2022/07/10 11:20:49;;;;;;;4.07;1.30;;;25.90;93.40;;;;;;5120683;28;19915;-55
2022/07/10 11:23:43;;;;;;;5.50;1.77;;;25.90;93.40;;;;;;5126094;28;20022;-56
2022/07/10 11:26:37;;;;;;;6.28;1.90;;;25.90;93.40;;;;;;5125924;28;20385;-54
2022/07/10 11:29:06;;;;;;;5.35;1.75;;;25.90;93.40;;;;;;5125830;28;20016;-57
2022/07/10 11:31:44;;;;;;;6.82;1.83;;;25.90;93.40;;;;;;5124540;28;20054;-53
2022/07/10 11:34:11;;;;;;;5.05;1.52;;;25.90;93.40;;;;;;5125625;28;20086;-53
2022/07/10 11:36:39;;;;;;;3.65;2.00;;;25.90;93.40;;;;;;5125766;28;20023;-55
2022/07/10 11:39:08;;;;;;;9.15;2.13;;;25.90;93.40;;;;;;5125495;28;20344;-55
2022/07/10 11:41:45;;;;;;;6.25;1.95;;;26.00;93.50;;;;;;5125654;28;20026;-57
2022/07/10 11:44:17;;;;;;;3.80;1.55;;;26.00;93.40;;;;;;5125679;28;20024;-56
2022/07/10 11:46:49;;;;;;;6.95;1.90;;;26.00;93.50;;;;;;5124700;28;20366;-63
2022/07/10 11:49:17;;;;;;;5.15;1.75;;;26.00;93.50;;;;;;5125612;28;20087;-55
2022/07/10 11:51:44;;;;;;;5.53;2.30;;;26.00;93.60;;;;;;5125363;28;20024;-56
2022/07/10 11:54:12;;;;;;;5.38;1.90;;;26.10;93.40;;;;;;5125656;28;20204;-57
2022/07/10 11:56:44;;;;;;;4.20;2.15;;;26.10;93.30;;;;;;5125323;28;20417;-53
2022/07/10 11:59:12;;;;;;;4.05;1.92;;;26.10;93.30;;;;;;5125250;28;20032;-54
2022/07/10 12:01:47;;;;;;;6.03;1.88;;;26.10;93.30;;;;;;5125207;28;20035;-64
2022/07/10 12:04:16;;;;;;;5.35;1.80;;;26.10;93.40;;;;;;5125476;28;20030;-61
2022/07/10 12:06:47;;;;;;;3.15;1.40;;;26.10;93.40;;;;;;5125138;28;20308;-61
2022/07/10 12:09:16;;;;;;;3.10;1.60;;;26.10;93.40;;;;;;5125223;28;20094;-54
2022/07/10 12:11:44;;;;;;;4.72;1.58;;;26.20;93.40;;;;;;5106853;28;20211;-55
2022/07/10 12:14:14;;;;;;;6.40;1.60;;;26.20;93.50;;;;;;5125193;28;20087;-63
2022/07/10 12:16:44;;;;;;;6.18;1.52;;;26.20;93.40;;;;;;5123032;28;20098;-53
2022/07/10 12:19:16;;;;;;;11.27;1.30;;;26.20;93.30;;;;;;5120295;28;20027;-61
2022/07/10 12:21:45;;;;;;;6.15;1.40;;;26.20;93.10;;;;;;5124919;28;20024;-62
2022/07/10 12:24:21;;;;;;;4.70;1.02;;;26.30;93.20;;;;;;5125236;28;20200;-54
2022/07/10 12:26:52;;;;;;;4.32;1.00;;;26.30;93.00;;;;;;5121085;28;20054;-55
2022/07/10 12:29:29;;;;;;;4.68;1.17;;;26.40;92.80;;;;;;5109205;28;20073;-55
2022/07/10 12:31:59;;;;;;;1.73;1.05;;;26.40;92.80;;;;;;5104378;28;20085;-57
2022/07/10 12:34:43;;;;;;;4.13;0.80;;;26.50;92.80;;;;;;5104147;28;20052;-56
2022/07/10 12:37:11;;;;;;;3.88;1.00;;;26.60;92.80;;;;;;5116975;28;20039;-56
2022/07/10 12:39:59;;;;;;;2.00;1.00;;;26.60;92.80;;;;;;5124669;28;20031;-62
2022/07/10 12:42:30;;;;;;;3.67;1.00;;;26.60;92.80;;;;;;5124549;28;20300;-63
2022/07/10 12:45:11;;;;;;;4.07;1.10;;;26.70;92.90;;;;;;5124726;28;20016;-53
2022/07/10 12:47:50;;;;;;;3.05;1.00;;;26.70;92.80;;;;;;5124390;28;20034;-56
2022/07/10 12:50:18;;;;;;;3.33;0.90;;;26.80;92.80;;;;;;5118269;28;20347;-61
2022/07/10 12:52:44;;;;;;;3.58;0.98;;;26.80;92.80;;;;;;5104090;28;20032;-56
2022/07/10 12:55:18;;;;;;;5.78;0.80;;;26.90;92.80;;;;;;5104384;28;20038;-54
2022/07/10 12:58:12;;;;;;;2.70;1.15;;;26.90;92.80;;;;;;5104212;28;20043;-53
2022/07/10 13:00:49;;;;;;;4.63;0.80;;;26.90;92.60;;;;;;5101049;28;20082;-55
2022/07/10 13:03:22;;;;;;;2.47;0.90;;;26.90;92.50;;;;;;5103830;28;20020;-55
2022/07/10 13:05:49;;;;;;;6.28;0.93;;;26.90;92.60;;;;;;5119492;28;20020;-54